No particular awareness of the weather is required.    There are no Weather-warnings


Meteo18 Weather Cam more information Meteo18 Weather Cam


Thunder radar more information blitzortung!


Rain radar more information rain snow radar


Visit our other weather sites:

Template documentation
and downloads

And another site



Weather Underground History page Text

Daily Summary for March 6, 2017 Units:  English    Metric   Both
« Previous Day
Next Day »
Daily Weekly Monthly Yearly Custom
  High: Low: Average:
Temperature: TemperatureC °F 4.3 °F 6.5 °F
Dew Point: DewpointC °F 2.7 °F 4.8 °F
Humidity: Humidity % 77 % 89 %
Wind Speed: WindSpeedKMH mph 0.0 mph 13.8 mph
Wind Gust: WindSpeedGustKMH mph - -
Wind:- - WSW
Pressure: PressurehPa in 997.9 in -
Precipitation: 13.0 in    
Historical Graphs
 
 
Tabular Data for March 6, 2017
Time Temperature Dew Point Pressure Wind Wind Speed Wind Gust Humidity Rainfall Rate (Hourly)
TemperatureC °F DewpointC °F PressurehPa in Calm     Humidity % HourlyPrecipMM in
00:02 7.4 °F 5.0 °F 1010.4 in WSW 14.5 mph 27.4 mph 85 % 0.0 in
00:07 7.4 °F 5.0 °F 1010.4 in WSW 11.3 mph 27.4 mph 85 % 0.0 in
00:12 7.4 °F 5.0 °F 1010.7 in WSW 9.7 mph 27.4 mph 85 % 0.0 in
00:17 7.4 °F 5.2 °F 1010.7 in West 20.9 mph 29.0 mph 86 % 0.0 in
00:22 7.4 °F 5.2 °F 1010.4 in West 11.3 mph 30.6 mph 86 % 0.0 in
00:32 7.4 °F 5.2 °F 1010.7 in WSW 17.7 mph 27.4 mph 86 % 0.0 in
00:37 7.4 °F 5.2 °F 1010.7 in West 14.5 mph 27.4 mph 86 % 0.0 in
00:47 7.4 °F 5.4 °F 1010.7 in SW 19.3 mph 22.5 mph 87 % 0.0 in
00:57 7.5 °F 5.5 °F 1010.7 in SW 14.5 mph 32.2 mph 87 % 0.0 in
01:02 7.6 °F 5.6 °F 1010.4 in WSW 12.9 mph 32.2 mph 87 % 0.0 in
01:07 7.6 °F 5.6 °F 1010.4 in West 12.9 mph 24.1 mph 87 % 0.0 in
01:12 7.6 °F 5.6 °F 1010.7 in WSW 12.9 mph 25.7 mph 87 % 0.0 in
01:17 7.6 °F 5.7 °F 1010.7 in West 8.0 mph 25.7 mph 88 % 0.0 in
01:22 7.6 °F 5.6 °F 1010.7 in WSW 9.7 mph 20.9 mph 87 % 0.0 in
01:27 7.7 °F 5.7 °F 1010.7 in WSW 8.0 mph 24.1 mph 87 % 0.0 in
01:32 7.6 °F 5.6 °F 1010.7 in West 12.9 mph 24.1 mph 87 % 0.0 in
01:37 7.7 °F 5.7 °F 1010.7 in SW 11.3 mph 25.7 mph 87 % 0.0 in
01:42 7.7 °F 5.7 °F 1010.7 in SW 11.3 mph 25.7 mph 87 % 0.0 in
01:47 7.7 °F 5.7 °F 1010.7 in WSW 16.1 mph 25.7 mph 87 % 0.0 in
01:52 7.7 °F 5.7 °F 1010.7 in SW 9.7 mph 25.7 mph 87 % 0.0 in
01:57 7.7 °F 5.7 °F 1010.7 in West 17.7 mph 25.7 mph 87 % 0.0 in
02:02 7.8 °F 5.6 °F 1010.7 in WSW 9.7 mph 25.7 mph 86 % 0.0 in
02:12 7.9 °F 5.5 °F 1010.7 in WSW 14.5 mph 29.0 mph 85 % 0.0 in
02:17 7.8 °F 5.6 °F 1010.7 in WSW 9.7 mph 29.0 mph 86 % 0.0 in
02:22 7.8 °F 5.6 °F 1010.7 in SW 12.9 mph 29.0 mph 86 % 0.0 in
02:27 7.8 °F 5.6 °F 1010.7 in WSW 11.3 mph 20.9 mph 86 % 0.0 in
02:32 7.7 °F 5.5 °F 1010.4 in WSW 4.8 mph 20.9 mph 86 % 0.0 in
02:37 7.7 °F 5.7 °F 1010.4 in West 8.0 mph 20.9 mph 87 % 0.0 in
02:42 7.7 °F 5.7 °F 1010.4 in SW 8.0 mph 17.7 mph 87 % 0.0 in
02:52 7.7 °F 5.7 °F 1010.4 in WSW 3.2 mph 17.7 mph 87 % 0.0 in
02:57 7.6 °F 5.6 °F 1010.4 in SW 8.0 mph 16.1 mph 87 % 0.0 in
03:02 7.6 °F 5.7 °F 1010.0 in SW 8.0 mph 14.5 mph 88 % 0.0 in
03:07 7.5 °F 5.6 °F 1010.0 in South 6.4 mph 14.5 mph 88 % 0.0 in
03:12 7.4 °F 5.5 °F 1010.0 in WSW 4.8 mph 12.9 mph 88 % 0.0 in
03:17 7.4 °F 5.7 °F 1010.0 in WSW 6.4 mph 16.1 mph 89 % 0.0 in
03:22 7.4 °F 5.7 °F 1009.7 in WSW 8.0 mph 16.1 mph 89 % 0.0 in
03:27 7.4 °F 5.5 °F 1009.7 in SW 6.4 mph 16.1 mph 88 % 0.0 in
03:32 7.4 °F 5.7 °F 1009.7 in SW 6.4 mph 16.1 mph 89 % 0.0 in
03:37 7.3 °F 5.6 °F 1009.7 in SW 11.3 mph 12.9 mph 89 % 0.0 in
03:42 7.4 °F 5.7 °F 1009.7 in SW 9.7 mph 16.1 mph 89 % 0.0 in
03:47 7.4 °F 5.7 °F 1009.7 in SSW 4.8 mph 16.1 mph 89 % 0.0 in
03:52 7.4 °F 5.7 °F 1009.4 in WSW 9.7 mph 16.1 mph 89 % 0.0 in
03:57 7.4 °F 5.7 °F 1009.4 in SW 14.5 mph 16.1 mph 89 % 0.0 in
04:02 7.4 °F 5.7 °F 1009.4 in WSW 8.0 mph 17.7 mph 89 % 0.0 in
04:07 7.4 °F 5.9 °F 1009.4 in WSW 8.0 mph 17.7 mph 90 % 0.0 in
04:12 7.3 °F 5.8 °F 1009.7 in SW 6.4 mph 17.7 mph 90 % 0.0 in
04:17 7.4 °F 5.9 °F 1009.4 in WSW 12.9 mph 16.1 mph 90 % 0.0 in
04:22 7.4 °F 5.9 °F 1009.4 in SW 6.4 mph 17.7 mph 90 % 0.0 in
04:27 7.4 °F 5.9 °F 1009.7 in SW 12.9 mph 19.3 mph 90 % 0.0 in
04:32 7.5 °F 6.0 °F 1009.4 in SW 8.0 mph 19.3 mph 90 % 0.0 in
04:37 7.6 °F 6.1 °F 1009.4 in WSW 8.0 mph 19.3 mph 90 % 0.0 in
04:47 7.6 °F 6.2 °F 1009.4 in West 9.7 mph 17.7 mph 91 % 0.0 in
04:52 7.6 °F 6.2 °F 1009.4 in West 1.6 mph 16.1 mph 91 % 0.0 in
04:57 7.6 °F 6.2 °F 1009.4 in West 8.0 mph 16.1 mph 91 % 0.0 in
05:02 7.6 °F 6.2 °F 1009.4 in West 12.9 mph 16.1 mph 91 % 0.0 in
05:12 7.6 °F 6.1 °F 1009.4 in WSW 16.1 mph 16.1 mph 90 % 0.0 in
05:17 7.6 °F 6.1 °F 1009.4 in West 9.7 mph 20.9 mph 90 % 0.0 in
05:22 7.6 °F 6.1 °F 1009.4 in WSW 9.7 mph 20.9 mph 90 % 0.0 in
05:32 7.6 °F 6.1 °F 1009.4 in WSW 9.7 mph 16.1 mph 90 % 0.0 in
05:42 7.6 °F 6.1 °F 1009.4 in West 8.0 mph 16.1 mph 90 % 0.0 in
05:47 7.7 °F 5.8 °F 1009.0 in West 14.5 mph 24.1 mph 88 % 0.0 in
05:52 7.7 °F 5.5 °F 1009.0 in West 8.0 mph 24.1 mph 86 % 0.0 in
05:57 7.8 °F 4.7 °F 1009.0 in West 12.9 mph 24.1 mph 81 % 0.0 in
06:02 7.8 °F 4.7 °F 1008.7 in West 16.1 mph 30.6 mph 81 % 0.0 in
06:12 7.7 °F 4.8 °F 1008.4 in WSW 4.8 mph 22.5 mph 82 % 0.0 in
06:17 7.6 °F 4.9 °F 1008.4 in WSW 1.6 mph 22.5 mph 83 % 0.0 in
06:22 7.6 °F 4.9 °F 1008.4 in SW 11.3 mph 22.5 mph 83 % 0.0 in
06:27 7.4 °F 4.9 °F 1008.4 in WSW 14.5 mph 20.9 mph 84 % 0.0 in
06:32 7.2 °F 5.0 °F 1008.4 in West 8.0 mph 20.9 mph 86 % 0.3 in
06:37 7.1 °F 5.1 °F 1008.4 in WSW 8.0 mph 20.9 mph 87 % 0.5 in
06:42 6.9 °F 5.1 °F 1008.4 in West 8.0 mph 17.7 mph 88 % 0.5 in
06:47 6.8 °F 5.0 °F 1008.4 in West 8.0 mph 11.3 mph 88 % 0.5 in
06:57 6.7 °F 5.0 °F 1008.0 in West 4.8 mph 16.1 mph 89 % 0.8 in
07:02 6.6 °F 4.9 °F 1008.0 in WSW 9.7 mph 16.1 mph 89 % 0.8 in
07:12 6.4 °F 4.6 °F 1008.0 in West 8.0 mph 11.3 mph 88 % 1.0 in
07:17 6.3 °F 4.6 °F 1008.0 in West 3.2 mph 12.9 mph 89 % 1.3 in
07:22 6.2 °F 4.5 °F 1007.7 in Calm   12.9 mph 89 % 1.3 in
07:27 6.2 °F 4.5 °F 1007.0 in Calm   12.9 mph 89 % 1.0 in
07:32 6.1 °F 4.4 °F 1007.3 in SW 6.4 mph 8.0 mph 89 % 0.8 in
07:37 6.0 °F 4.5 °F 1007.3 in SW 3.2 mph 6.4 mph 90 % 0.8 in
07:42 6.0 °F 4.5 °F 1007.3 in SW 1.6 mph 6.4 mph 90 % 0.8 in
07:47 5.9 °F 4.4 °F 1007.0 in Calm   6.4 mph 90 % 0.5 in
07:52 5.9 °F 4.5 °F 1006.7 in Calm   6.4 mph 91 % 0.8 in
07:57 5.8 °F 4.4 °F 1006.7 in Calm   3.2 mph 91 % 0.8 in
08:02 5.7 °F 4.5 °F 1006.7 in Calm   3.2 mph 92 % 1.0 in
08:07 5.7 °F 4.5 °F 1006.7 in Calm   3.2 mph 92 % 0.8 in
08:12 5.7 °F 4.5 °F 1006.7 in Calm   3.2 mph 92 % 0.8 in
08:17 5.7 °F 4.7 °F 1006.7 in Calm   3.2 mph 93 % 0.8 in
08:22 5.7 °F 4.7 °F 1006.3 in Calm     93 % 0.8 in
08:27 5.7 °F 4.7 °F 1006.3 in Calm   1.6 mph 93 % 0.8 in
08:32 5.7 °F 4.8 °F 1006.0 in ESE 1.6 mph 3.2 mph 94 % 0.8 in
08:37 5.7 °F 4.8 °F 1006.0 in East 1.6 mph 3.2 mph 94 % 0.5 in
08:42 5.7 °F 4.8 °F 1006.3 in Calm   3.2 mph 94 % 0.8 in
08:47 5.7 °F 4.8 °F 1006.0 in SE 1.6 mph 3.2 mph 94 % 0.5 in
08:52 5.7 °F 5.0 °F 1005.6 in SE 1.6 mph 3.2 mph 95 % 0.8 in
08:57 5.7 °F 5.0 °F 1005.6 in ESE 1.6 mph 4.8 mph 95 % 1.5 in
09:02 5.7 °F 5.0 °F 1005.6 in SSE 4.8 mph 6.4 mph 95 % 1.8 in
09:12 5.7 °F 5.0 °F 1005.6 in South 4.8 mph 8.0 mph 95 % 1.8 in
09:17 5.7 °F 5.0 °F 1005.3 in SSE 9.7 mph 9.7 mph 95 % 2.0 in
09:22 5.7 °F 5.0 °F 1005.0 in SE 1.6 mph 11.3 mph 95 % 2.0 in
09:32 5.9 °F 5.3 °F 1004.3 in ESE 11.3 mph 16.1 mph 96 % 2.5 in
09:37 6.0 °F 5.4 °F 1004.3 in SSE 8.0 mph 17.7 mph 96 % 2.5 in
09:42 6.2 °F 5.6 °F 1003.9 in SSE 9.7 mph 17.7 mph 96 % 2.5 in
09:47 6.3 °F 5.7 °F 1003.6 in South 6.4 mph 17.7 mph 96 % 2.5 in
09:52 6.3 °F 5.7 °F 1003.3 in SE 8.0 mph 16.1 mph 96 % 2.3 in
10:02 6.4 °F 5.8 °F 1002.6 in ESE 16.1 mph 17.7 mph 96 % 1.5 in
10:07 6.4 °F 5.8 °F 1002.3 in SE 14.5 mph 19.3 mph 96 % 1.5 in
10:12 6.5 °F 5.9 °F 1002.3 in SSE 22.5 mph 22.5 mph 96 % 1.5 in
10:17 6.5 °F 5.9 °F 1001.9 in SE 4.8 mph 22.5 mph 96 % 1.3 in
10:22 6.5 °F 5.8 °F 1001.6 in SSE 11.3 mph 27.4 mph 95 % 1.3 in
10:27 6.4 °F 5.8 °F 1001.2 in SSE 17.7 mph 27.4 mph 96 % 1.0 in
10:32 6.3 °F 5.6 °F 1000.9 in SSE 8.0 mph 27.4 mph 95 % 1.0 in
10:37 6.3 °F 5.6 °F 1000.6 in SE 8.0 mph 24.1 mph 95 % 1.0 in
10:42 6.3 °F 5.6 °F 999.9 in ESE 11.3 mph 24.1 mph 95 % 1.0 in
10:47 6.3 °F 5.7 °F 998.9 in SSE 9.7 mph 30.6 mph 96 % 1.3 in
10:52 6.3 °F 5.7 °F 998.5 in SSE 11.3 mph 30.6 mph 96 % 1.3 in
10:57 6.4 °F 5.8 °F 998.5 in South 12.9 mph 30.6 mph 96 % 1.3 in
11:02 6.5 °F 5.9 °F 999.2 in SSW 17.7 mph 30.6 mph 96 % 1.0 in
11:07 6.6 °F 6.0 °F 999.2 in SE 9.7 mph 32.2 mph 96 % 1.0 in
11:12 6.8 °F 6.4 °F 998.9 in South 20.9 mph 32.2 mph 97 % 1.3 in
11:17 7.4 °F 7.0 °F 998.9 in SSW 25.7 mph 32.2 mph 97 % 1.0 in
11:22 8.1 °F 7.3 °F 998.5 in South 27.4 mph 32.2 mph 95 % 1.0 in
11:27 8.3 °F 7.2 °F 997.9 in SSW 16.1 mph 38.6 mph 93 % 0.8 in
11:32 8.4 °F 7.3 °F 997.9 in SSW 19.3 mph 38.6 mph 93 % 0.8 in
11:37 8.6 °F 7.5 °F 997.9 in SW 14.5 mph 37.0 mph 93 % 0.8 in
11:42 8.8 °F 7.7 °F 998.2 in SW 29.0 mph 38.6 mph 93 % 0.5 in
11:52 9.2 °F 6.5 °F 997.9 in West 29.0 mph 46.7 mph 83 % 0.5 in
11:57 9.4 °F 5.6 °F 997.9 in WSW 35.4 mph 57.9 mph 77 % 0.5 in
12:02 9.4 °F 5.6 °F 997.9 in West 27.4 mph 57.9 mph 77 % 0.5 in
12:07 9.1 °F 6.0 °F 998.2 in West 24.1 mph 57.9 mph 81 % 0.5 in
12:12 8.8 °F 5.7 °F 997.9 in SSW 17.7 mph 56.3 mph 81 % 0.5 in
12:17 8.6 °F 5.7 °F 997.9 in West 37.0 mph 51.5 mph 82 % 0.8 in
12:22 8.4 °F 5.9 °F 998.2 in West 32.2 mph 54.7 mph 84 % 0.8 in
12:32 7.9 °F 5.9 °F 998.2 in West 24.1 mph 54.7 mph 87 % 1.5 in
12:37 7.7 °F 5.8 °F 997.9 in West 22.5 mph 61.1 mph 88 % 1.8 in
12:42 7.5 °F 5.8 °F 997.9 in West 20.9 mph 61.1 mph 89 % 2.0 in
12:47 7.4 °F 5.9 °F 997.9 in West 20.9 mph 61.1 mph 90 % 2.0 in
12:52 7.4 °F 5.9 °F 997.9 in NNW 17.7 mph 59.5 mph 90 % 2.3 in
12:57 7.4 °F 5.9 °F 997.9 in SW 17.7 mph 41.8 mph 90 % 2.3 in
13:02 7.6 °F 6.1 °F 997.9 in WSW 25.7 mph 40.2 mph 90 % 2.5 in
13:07 7.7 °F 6.0 °F 997.9 in WNW 17.7 mph 48.3 mph 89 % 2.8 in
13:12 7.7 °F 6.0 °F 997.9 in West 22.5 mph 48.3 mph 89 % 2.8 in
13:17 7.9 °F 6.0 °F 997.9 in WNW 45.1 mph 48.3 mph 88 % 2.5 in
13:22 7.9 °F 6.0 °F 998.2 in WSW 45.1 mph 57.9 mph 88 % 2.5 in
13:27 8.1 °F 6.2 °F 998.2 in WNW 30.6 mph 57.9 mph 88 % 2.5 in
13:32 8.2 °F 6.3 °F 998.5 in WNW 25.7 mph 57.9 mph 88 % 2.3 in
13:37 8.3 °F 6.3 °F 998.9 in West 12.9 mph 56.3 mph 87 % 2.0 in
13:42 8.3 °F 6.3 °F 998.9 in West 30.6 mph 49.9 mph 87 % 1.8 in
13:47 8.4 °F 6.4 °F 998.9 in WNW 40.2 mph 49.9 mph 87 % 1.5 in
13:52 8.6 °F 6.4 °F 998.9 in WNW 29.0 mph 49.9 mph 86 % 1.3 in
13:57 8.7 °F 6.5 °F 999.2 in West 25.7 mph 53.1 mph 86 % 1.0 in
14:02 8.8 °F 6.6 °F 999.2 in WNW 16.1 mph 53.1 mph 86 % 0.8 in
14:07 8.8 °F 6.6 °F 999.5 in WNW 25.7 mph 49.9 mph 86 % 0.5 in
14:12 8.8 °F 6.4 °F 999.5 in West 40.2 mph 43.4 mph 85 % 0.5 in
14:22 9.1 °F 6.7 °F 999.9 in West 30.6 mph 53.1 mph 85 % 0.3 in
14:27 9.2 °F 7.0 °F 1000.2 in NW 19.3 mph 53.1 mph 86 % 0.0 in
14:32 9.1 °F 6.7 °F 1000.2 in West 32.2 mph 51.5 mph 85 % 0.0 in
14:37 8.8 °F 6.1 °F 1000.2 in West 51.5 mph 53.1 mph 83 % 0.0 in
14:42 8.8 °F 6.2 °F 1000.6 in WNW 20.9 mph 54.7 mph 84 % 0.0 in
14:47 8.9 °F 6.0 °F 1000.6 in West 25.7 mph 54.7 mph 82 % 0.0 in
14:52 9.0 °F 6.3 °F 1000.9 in WNW 24.1 mph 54.7 mph 83 % 0.3 in
14:57 8.9 °F 6.3 °F 1000.9 in WNW 38.6 mph 49.9 mph 84 % 0.3 in
15:02 8.7 °F 6.5 °F 1001.2 in WNW 35.4 mph 49.9 mph 86 % 0.3 in
15:07 8.6 °F 6.4 °F 1001.2 in WNW 22.5 mph 48.3 mph 86 % 0.3 in
15:12 8.6 °F 6.4 °F 1001.6 in WNW 11.3 mph 48.3 mph 86 % 0.3 in
15:17 8.3 °F 6.3 °F 1001.9 in West 25.7 mph 46.7 mph 87 % 0.3 in
15:22 8.2 °F 6.3 °F 1002.3 in WNW 19.3 mph 46.7 mph 88 % 0.5 in
15:27 8.0 °F 6.1 °F 1002.9 in NW 16.1 mph 46.7 mph 88 % 0.5 in
15:37 6.9 °F 4.9 °F 1003.9 in NNW 24.1 mph 45.1 mph 87 % 0.5 in
15:42 6.6 °F 4.9 °F 1004.6 in NNW 19.3 mph 49.9 mph 89 % 0.5 in
15:47 6.2 °F 4.5 °F 1005.0 in NNW 9.7 mph 49.9 mph 89 % 0.5 in
15:52 5.9 °F 4.2 °F 1005.3 in NW 11.3 mph 49.9 mph 89 % 0.5 in
16:02 5.4 °F 3.7 °F 1006.7 in NNW 19.3 mph 43.4 mph 89 % 0.5 in
16:07 5.2 °F 3.9 °F 1007.0 in NW 17.7 mph 43.4 mph 91 % 0.5 in
16:12 5.2 °F 4.0 °F 1007.7 in NNW 27.4 mph 43.4 mph 92 % 0.5 in
16:17 4.9 °F 3.6 °F 1008.0 in WNW 20.9 mph 46.7 mph 91 % 0.3 in
16:22 4.9 °F 3.6 °F 1008.4 in North 19.3 mph 46.7 mph 91 % 0.3 in
16:27 4.8 °F 3.5 °F 1008.7 in WNW 33.8 mph 46.7 mph 91 % 0.5 in
16:32 4.8 °F 3.5 °F 1009.0 in NW 12.9 mph 49.9 mph 91 % 0.5 in
16:37 4.7 °F 3.2 °F 1009.4 in NW 22.5 mph 49.9 mph 90 % 0.5 in
16:42 4.7 °F 3.4 °F 1009.7 in NW 12.9 mph 49.9 mph 91 % 0.5 in
16:47 4.6 °F 3.3 °F 1010.0 in NW 33.8 mph 41.8 mph 91 % 0.5 in
16:52 4.4 °F 3.1 °F 1010.0 in WNW 14.5 mph 41.8 mph 91 % 0.5 in
16:57 4.4 °F 3.1 °F 1010.4 in West 20.9 mph 37.0 mph 91 % 0.8 in
17:02 4.4 °F 2.9 °F 1011.1 in NW 20.9 mph 37.0 mph 90 % 0.8 in
17:07 4.5 °F 3.0 °F 1011.1 in NW 20.9 mph 41.8 mph 90 % 0.8 in
17:17 4.5 °F 3.2 °F 1011.7 in NW 19.3 mph 46.7 mph 91 % 1.0 in
17:22 4.5 °F 3.2 °F 1011.7 in WNW 24.1 mph 46.7 mph 91 % 1.3 in
17:27 4.5 °F 3.2 °F 1011.7 in NW 16.1 mph 37.0 mph 91 % 1.0 in
17:32 4.5 °F 3.2 °F 1012.1 in ESE 11.3 mph 37.0 mph 91 % 1.3 in
17:37 4.5 °F 3.0 °F 1012.4 in NNW 4.8 mph 37.0 mph 90 % 1.0 in
17:42 4.5 °F 3.0 °F 1012.8 in NW 4.8 mph 37.0 mph 90 % 1.0 in
17:47 4.5 °F 3.0 °F 1012.8 in NNW 14.5 mph 33.8 mph 90 % 0.8 in
17:52 4.5 °F 3.0 °F 1012.8 in NNW 9.7 mph 40.2 mph 90 % 1.0 in
17:57 4.5 °F 3.0 °F 1013.1 in NW 16.1 mph 40.2 mph 90 % 0.8 in
18:02 4.5 °F 3.0 °F 1013.1 in WNW 19.3 mph 35.4 mph 90 % 0.8 in
18:07 4.5 °F 3.0 °F 1013.4 in West 12.9 mph 35.4 mph 90 % 0.8 in
18:12 4.5 °F 3.2 °F 1013.4 in WNW 16.1 mph 35.4 mph 91 % 1.0 in
18:17 4.6 °F 3.1 °F 1013.8 in WNW 29.0 mph 33.8 mph 90 % 0.8 in
18:22 4.6 °F 3.1 °F 1013.8 in NW 9.7 mph 33.8 mph 90 % 0.5 in
18:32 4.5 °F 3.0 °F 1014.1 in WNW 9.7 mph 37.0 mph 90 % 0.5 in
18:37 4.4 °F 2.9 °F 1014.1 in WNW 22.5 mph 37.0 mph 90 % 0.5 in
18:42 4.4 °F 2.9 °F 1014.1 in WNW 17.7 mph 37.0 mph 90 % 0.5 in
18:47 4.4 °F 2.9 °F 1014.4 in WNW 20.9 mph 33.8 mph 90 % 0.5 in
18:52 4.3 °F 2.8 °F 1014.4 in WNW 6.4 mph 33.8 mph 90 % 0.5 in
18:57 4.4 °F 2.9 °F 1014.4 in West 17.7 mph 37.0 mph 90 % 0.5 in
19:02 4.4 °F 2.7 °F 1014.4 in SW 16.1 mph 37.0 mph 89 % 0.5 in
19:07 4.5 °F 2.8 °F 1014.4 in West 17.7 mph 37.0 mph 89 % 0.3 in
19:12 4.5 °F 2.8 °F 1014.4 in WSW 16.1 mph 33.8 mph 89 % 0.3 in
19:17 4.6 °F 2.9 °F 1014.8 in West 20.9 mph 33.8 mph 89 % 0.3 in
19:22 4.6 °F 2.9 °F 1014.8 in WNW 22.5 mph 30.6 mph 89 % 0.3 in
19:27 4.7 °F 3.0 °F 1014.8 in West 8.0 mph 33.8 mph 89 % 0.3 in
19:32 4.8 °F 3.1 °F 1015.1 in West 17.7 mph 33.8 mph 89 % 0.3 in
19:37 4.8 °F 3.3 °F 1015.1 in WNW 17.7 mph 29.0 mph 90 % 0.0 in
19:42 4.8 °F 3.3 °F 1015.1 in West 16.1 mph 29.0 mph 90 % 0.0 in
19:47 4.8 °F 3.5 °F 1015.1 in WNW 14.5 mph 29.0 mph 91 % 0.0 in
19:52 4.8 °F 3.3 °F 1015.1 in WNW 12.9 mph 22.5 mph 90 % 0.3 in
19:57 4.8 °F 3.3 °F 1015.1 in WSW 8.0 mph 25.7 mph 90 % 0.3 in
20:02 4.8 °F 3.3 °F 1015.5 in WNW 6.4 mph 25.7 mph 90 % 0.3 in
20:07 4.8 °F 3.5 °F 1015.5 in WSW 8.0 mph 25.7 mph 91 % 0.3 in
20:12 4.8 °F 3.5 °F 1015.5 in WSW 4.8 mph 20.9 mph 91 % 0.3 in
20:17 4.8 °F 3.5 °F 1015.5 in WSW 8.0 mph 19.3 mph 91 % 0.3 in
20:22 4.9 °F 3.6 °F 1015.5 in West 9.7 mph 14.5 mph 91 % 0.3 in
20:27 4.9 °F 3.7 °F 1015.5 in West 11.3 mph 19.3 mph 92 % 0.3 in
20:32 4.9 °F 3.7 °F 1015.5 in West 8.0 mph 19.3 mph 92 % 0.3 in
20:37 4.9 °F 3.7 °F 1015.5 in SW 8.0 mph 20.9 mph 92 % 0.3 in
20:42 4.9 °F 3.7 °F 1015.5 in West 3.2 mph 20.9 mph 92 % 0.3 in
20:52 4.8 °F 3.8 °F 1015.5 in SW 3.2 mph 11.3 mph 93 % 0.0 in
20:57 4.8 °F 3.8 °F 1015.5 in West 4.8 mph 11.3 mph 93 % 0.0 in
21:02 4.7 °F 3.7 °F 1015.5 in WNW 8.0 mph 11.3 mph 93 % 0.0 in
21:07 4.7 °F 3.7 °F 1015.8 in West 8.0 mph 11.3 mph 93 % 0.0 in
21:12 4.7 °F 3.7 °F 1015.8 in West 8.0 mph 14.5 mph 93 % 0.0 in
21:17 4.7 °F 3.7 °F 1015.8 in WSW 6.4 mph 14.5 mph 93 % 0.0 in
21:22 4.8 °F 3.8 °F 1015.8 in West 3.2 mph 12.9 mph 93 % 0.0 in
21:27 4.8 °F 3.6 °F 1015.8 in West 4.8 mph 16.1 mph 92 % 0.0 in
21:32 4.8 °F 3.6 °F 1015.8 in West 6.4 mph 16.1 mph 92 % 0.0 in
21:37 4.9 °F 3.7 °F 1015.8 in West 4.8 mph 16.1 mph 92 % 0.0 in
21:42 5.0 °F 3.7 °F 1015.8 in West 4.8 mph 16.1 mph 91 % 0.0 in
21:47 5.3 °F 3.6 °F 1016.1 in WNW 9.7 mph 22.5 mph 89 % 0.0 in
21:52 5.3 °F 3.5 °F 1016.1 in West 11.3 mph 22.5 mph 88 % 0.0 in
21:57 5.3 °F 3.5 °F 1016.1 in West 14.5 mph 22.5 mph 88 % 0.0 in
22:02 5.2 °F 3.4 °F 1016.1 in West 8.0 mph 20.9 mph 88 % 0.0 in
22:07 5.1 °F 3.4 °F 1016.1 in West 9.7 mph 20.9 mph 89 % 0.0 in
22:12 5.0 °F 3.5 °F 1016.5 in WNW 9.7 mph 19.3 mph 90 % 0.0 in
22:17 4.9 °F 3.4 °F 1016.5 in SW 8.0 mph 17.7 mph 90 % 0.0 in
22:22 4.9 °F 3.4 °F 1016.5 in WNW 12.9 mph 19.3 mph 90 % 0.0 in
22:27 4.9 °F 3.2 °F 1016.5 in West 12.9 mph 24.1 mph 89 % 0.0 in
22:32 5.0 °F 3.3 °F 1016.5 in West 12.9 mph 24.1 mph 89 % 0.0 in
22:37 5.1 °F 3.4 °F 1016.5 in West 11.3 mph 24.1 mph 89 % 0.0 in
22:42 5.2 °F 3.5 °F 1016.5 in WNW 14.5 mph 25.7 mph 89 % 0.0 in
22:47 5.3 °F 3.5 °F 1016.5 in West 16.1 mph 27.4 mph 88 % 0.0 in
22:52 5.3 °F 3.5 °F 1016.5 in NW 27.4 mph 30.6 mph 88 % 0.0 in
22:57 5.5 °F 3.5 °F 1016.5 in West 17.7 mph 30.6 mph 87 % 0.0 in
23:02 5.6 °F 3.6 °F 1016.5 in WNW 30.6 mph 30.6 mph 87 % 0.0 in
23:07 5.6 °F 3.6 °F 1016.8 in WNW 17.7 mph 32.2 mph 87 % 0.0 in
23:12 5.6 °F 3.6 °F 1016.8 in WSW 22.5 mph 32.2 mph 87 % 0.0 in
23:17 5.6 °F 3.6 °F 1016.8 in WNW 12.9 mph 37.0 mph 87 % 0.0 in
23:22 5.6 °F 3.6 °F 1016.8 in WSW 12.9 mph 37.0 mph 87 % 0.0 in
23:27 5.4 °F 3.6 °F 1016.8 in WNW 16.1 mph 37.0 mph 88 % 0.0 in
23:32 5.4 °F 3.6 °F 1016.8 in WSW 11.3 mph 33.8 mph 88 % 0.0 in
23:37 5.4 °F 3.6 °F 1016.8 in West 12.9 mph 29.0 mph 88 % 0.0 in
23:42 5.5 °F 3.7 °F 1016.5 in WSW 11.3 mph 30.6 mph 88 % 0.0 in
23:47 5.5 °F 3.8 °F 1016.8 in West 14.5 mph 30.6 mph 89 % 0.0 in
23:52 5.6 °F 3.9 °F 1016.8 in WNW 11.3 mph 30.6 mph 89 % 0.0 in
Meteo18
Compliments of Weather Underground - 4 mb

Script developed by  Jim McMurry - jmcmurry@mwt.net Adapted for the template by  Wim van der Kuil - Leuven-Template.eu

You find our weather info also at:

European Weather Network

Weather Underground

Equipment we use:

Weather-station
Davis Vue

Weather-program
Meteobridge

Weather-server
Raspberry PI 2 B+

Provider
1 and 1

Davis Vue

Meteobridge

Raspberry PI 2 B+

1 and 1